createdAt,value
2023-03-27T00:01:25.304Z,88.99
2023-03-27T00:03:53.425Z,89.00
2023-03-27T00:06:21.884Z,89.55
2023-03-27T00:08:51.022Z,90.24
2023-03-27T00:11:19.139Z,89.96
2023-03-27T00:13:50.075Z,90.09
2023-03-27T00:16:22.595Z,90.18
2023-03-27T00:18:49.316Z,90.73
2023-03-27T00:21:15.933Z,90.92
2023-03-27T00:23:42.660Z,90.43
2023-03-27T00:26:09.924Z,90.20
2023-03-27T00:28:37.186Z,89.97
2023-03-27T00:31:04.102Z,90.45
2023-03-27T00:33:30.785Z,90.00
2023-03-27T00:35:57.426Z,90.24
2023-03-27T00:38:24.475Z,89.93
2023-03-27T00:40:54.391Z,90.38
2023-03-27T00:43:21.710Z,90.16
2023-03-27T00:45:52.638Z,87.36
2023-03-27T00:48:20.704Z,85.83
2023-03-27T00:50:49.989Z,84.98
2023-03-27T00:53:20.640Z,85.82
2023-03-27T00:55:49.191Z,85.94
2023-03-27T00:58:32.077Z,86.98
2023-03-27T01:00:59.141Z,87.13
2023-03-27T01:03:30.167Z,87.00
2023-03-27T01:06:00.334Z,86.86
2023-03-27T01:08:29.855Z,86.40
2023-03-27T01:11:20.736Z,84.93
2023-03-27T01:13:50.322Z,85.77
2023-03-27T01:16:27.446Z,86.03
2023-03-27T01:19:12.417Z,85.04
2023-03-27T01:21:54.278Z,85.88
2023-03-27T01:24:48.403Z,86.47
2023-03-27T01:27:52.672Z,85.35
2023-03-27T01:30:29.602Z,86.29
2023-03-27T01:33:08.482Z,86.14
2023-03-27T01:35:50.583Z,86.88
2023-03-27T01:38:19.884Z,87.29
2023-03-27T01:41:01.416Z,86.32
2023-03-27T01:44:00.762Z,86.09
2023-03-27T01:46:35.687Z,86.30
2023-03-27T01:49:15.630Z,87.04
2023-03-27T01:51:49.093Z,87.93
2023-03-27T01:54:29.814Z,86.78
2023-03-27T01:57:16.084Z,87.03
2023-03-27T01:59:46.417Z,87.04
2023-03-27T02:02:31.048Z,87.24
2023-03-27T02:05:12.503Z,87.32
2023-03-27T02:07:48.769Z,87.19
2023-03-27T02:10:21.746Z,87.42
2023-03-27T02:12:59.978Z,87.68
2023-03-27T02:15:32.748Z,86.74
2023-03-27T02:18:05.117Z,86.36
2023-03-27T02:20:37.549Z,86.64
2023-03-27T02:23:06.411Z,86.77
2023-03-27T02:25:45.273Z,86.72
2023-03-27T02:28:53.648Z,86.99
2023-03-27T02:31:40.559Z,87.77
2023-03-27T02:34:11.925Z,87.61
2023-03-27T02:36:44.633Z,87.65
2023-03-27T02:39:16.000Z,87.20
2023-03-27T02:41:42.461Z,87.21
2023-03-27T02:44:46.293Z,88.02
2023-03-27T02:47:30.790Z,88.02
2023-03-27T02:50:09.724Z,88.77
2023-03-27T02:52:45.486Z,89.07
2023-03-27T02:55:19.523Z,89.04
2023-03-27T02:57:54.846Z,88.40
2023-03-27T03:00:37.478Z,88.37
2023-03-27T03:03:27.636Z,88.60
2023-03-27T03:06:06.955Z,88.37
2023-03-27T03:08:38.351Z,88.08
2023-03-27T03:11:10.717Z,88.52
2023-03-27T03:13:38.144Z,88.26
2023-03-27T03:16:05.425Z,87.03
2023-03-27T03:18:33.319Z,87.04
2023-03-27T03:21:00.437Z,86.79
2023-03-27T03:23:27.113Z,86.97
2023-03-27T03:25:56.860Z,87.49
2023-03-27T03:28:26.999Z,87.71
2023-03-27T03:30:54.159Z,88.05
2023-03-27T03:33:21.675Z,88.04
2023-03-27T03:35:51.537Z,88.61
2023-03-27T03:38:29.600Z,88.66
2023-03-27T03:41:07.020Z,88.78
2023-03-27T03:43:34.501Z,87.71
2023-03-27T03:46:01.633Z,87.81
2023-03-27T03:48:28.312Z,87.78
2023-03-27T03:50:55.168Z,87.64
2023-03-27T03:53:22.526Z,87.58
2023-03-27T03:55:52.674Z,87.56
2023-03-27T03:58:19.766Z,87.77
2023-03-27T04:00:47.136Z,87.41
2023-03-27T04:03:32.323Z,86.29
2023-03-27T04:06:05.672Z,86.76
2023-03-27T04:08:33.424Z,86.76
2023-03-27T04:11:02.707Z,86.21
2023-03-27T04:13:58.422Z,86.02
2023-03-27T04:16:34.324Z,85.54
2023-03-27T04:19:08.107Z,86.49
2023-03-27T04:21:37.850Z,85.88
2023-03-27T04:24:05.345Z,86.44
2023-03-27T04:26:43.352Z,86.12
2023-03-27T04:29:25.826Z,86.65
2023-03-27T04:32:19.356Z,86.38
2023-03-27T04:35:12.701Z,86.57
2023-03-27T04:37:47.977Z,86.33
2023-03-27T04:40:49.141Z,85.99
2023-03-27T04:43:17.357Z,85.87
2023-03-27T04:45:47.448Z,85.92
2023-03-27T04:48:15.236Z,85.17
2023-03-27T04:50:49.246Z,85.16
2023-03-27T04:53:31.059Z,85.25
2023-03-27T04:55:58.106Z,84.97
2023-03-27T04:58:28.424Z,84.57
2023-03-27T05:00:57.558Z,85.67
2023-03-27T05:03:42.967Z,85.88
2023-03-27T05:06:16.100Z,84.42
2023-03-27T05:08:42.859Z,84.56
2023-03-27T05:11:18.999Z,84.11
2023-03-27T05:13:45.721Z,84.50
2023-03-27T05:16:17.281Z,83.56
2023-03-27T05:18:46.431Z,84.30
2023-03-27T05:21:13.510Z,83.93
2023-03-27T05:23:40.201Z,83.70
2023-03-27T05:26:07.822Z,83.81
2023-03-27T05:28:52.492Z,83.63
2023-03-27T05:31:19.324Z,83.44
2023-03-27T05:34:05.690Z,83.44
2023-03-27T05:36:35.393Z,83.81
2023-03-27T05:39:02.156Z,84.52
2023-03-27T05:41:35.414Z,83.77
2023-03-27T05:44:04.864Z,83.19
2023-03-27T05:46:36.304Z,82.83
2023-03-27T05:49:15.438Z,83.75
2023-03-27T05:51:46.804Z,82.79
2023-03-27T05:54:19.372Z,82.90
2023-03-27T05:56:54.486Z,82.51
2023-03-27T05:59:21.553Z,83.10
2023-03-27T06:01:51.901Z,82.38
2023-03-27T06:04:24.430Z,83.02
2023-03-27T06:07:04.848Z,83.05
2023-03-27T06:09:32.856Z,82.43
2023-03-27T06:12:29.372Z,82.37
2023-03-27T06:15:08.506Z,82.73
2023-03-27T06:17:41.162Z,82.04
2023-03-27T06:20:15.005Z,80.57
2023-03-27T06:22:55.528Z,80.19
2023-03-27T06:25:32.191Z,80.74
2023-03-27T06:27:59.204Z,80.63
2023-03-27T06:30:26.860Z,79.56
2023-03-27T06:33:22.865Z,79.58
2023-03-27T06:35:53.292Z,81.08
2023-03-27T06:38:30.944Z,80.84
2023-03-27T06:40:59.527Z,79.58
2023-03-27T06:43:39.177Z,80.32
2023-03-27T06:46:13.663Z,80.74
2023-03-27T06:49:00.270Z,77.30
2023-03-27T06:51:27.044Z,74.94
2023-03-27T06:53:54.015Z,74.28
2023-03-27T06:56:21.838Z,73.95
2023-03-27T06:59:07.260Z,75.54
2023-03-27T07:01:34.118Z,74.22
2023-03-27T07:04:18.859Z,73.77
2023-03-27T07:06:53.331Z,74.54
2023-03-27T07:09:20.335Z,74.83
2023-03-27T07:11:57.572Z,75.16
2023-03-27T07:14:24.292Z,73.63
2023-03-27T07:16:51.332Z,70.04
2023-03-27T07:19:19.004Z,70.11
2023-03-27T07:21:51.049Z,69.34
2023-03-27T07:24:17.665Z,68.05
2023-03-27T07:26:44.254Z,68.72
2023-03-27T07:29:20.843Z,67.77
2023-03-27T07:34:29.692Z,68.61
2023-03-27T07:37:11.328Z,68.90
2023-03-27T07:39:48.267Z,70.25
2023-03-27T07:42:15.486Z,69.29
2023-03-27T07:44:52.612Z,70.13
2023-03-27T07:47:20.850Z,70.69
2023-03-27T07:49:47.514Z,70.36
2023-03-27T07:52:19.941Z,71.35
2023-03-27T07:54:56.867Z,70.14
2023-03-27T07:57:29.549Z,67.69
2023-03-27T08:00:12.892Z,70.94
2023-03-27T08:02:51.923Z,70.30
2023-03-27T08:05:19.692Z,71.24
2023-03-27T08:07:56.170Z,69.23
2023-03-27T08:10:40.292Z,66.75
2023-03-27T08:13:08.349Z,68.98
2023-03-27T08:15:35.029Z,67.38
2023-03-27T08:18:03.015Z,67.95
2023-03-27T08:20:30.581Z,67.12
2023-03-27T08:22:58.447Z,68.44
2023-03-27T08:25:52.137Z,67.82
2023-03-27T08:28:21.850Z,66.78
2023-03-27T08:30:48.542Z,66.06
2023-03-27T08:33:16.980Z,65.62
2023-03-27T08:38:26.002Z,64.41
2023-03-27T08:41:38.645Z,66.00
2023-03-27T08:44:26.410Z,66.65
2023-03-27T08:47:05.060Z,65.73
2023-03-27T08:49:43.040Z,62.68
2023-03-27T08:52:33.001Z,65.02
2023-03-27T08:55:18.572Z,63.29
2023-03-27T08:58:19.432Z,60.74
2023-03-27T09:00:57.506Z,62.34
2023-03-27T09:03:32.052Z,61.58
2023-03-27T09:06:34.056Z,59.85
2023-03-27T09:09:38.812Z,62.78
2023-03-27T09:12:34.010Z,59.63
2023-03-27T09:15:15.867Z,60.61
2023-03-27T09:17:56.909Z,61.90
2023-03-27T09:20:29.956Z,59.41
2023-03-27T09:23:05.465Z,58.00
2023-03-27T09:25:59.294Z,57.32
2023-03-27T09:28:53.429Z,59.89
2023-03-27T09:31:46.890Z,59.99
2023-03-27T09:34:28.888Z,57.65
2023-03-27T09:36:59.180Z,60.35
2023-03-27T09:39:32.488Z,63.09
2023-03-27T09:42:28.886Z,63.16
2023-03-27T09:44:58.797Z,59.31
2023-03-27T09:47:40.757Z,57.79
2023-03-27T09:50:26.268Z,53.79
2023-03-27T09:53:16.013Z,56.37
2023-03-27T09:55:53.121Z,52.76
2023-03-27T09:58:25.299Z,50.74
2023-03-27T10:01:08.484Z,47.72
2023-03-27T10:03:48.537Z,50.24
2023-03-27T10:06:25.555Z,44.98
2023-03-27T10:09:19.334Z,42.25
2023-03-27T10:11:48.242Z,46.18
2023-03-27T10:14:26.120Z,47.58
2023-03-27T10:16:54.472Z,51.10
2023-03-27T10:19:27.788Z,51.06
2023-03-27T10:21:56.866Z,51.78
2023-03-27T10:24:36.036Z,54.17
2023-03-27T10:27:31.454Z,56.81
2023-03-27T10:30:28.532Z,49.27
2023-03-27T10:33:07.288Z,51.10
2023-03-27T10:35:48.931Z,46.92
2023-03-27T10:38:35.684Z,47.05
2023-03-27T10:41:36.829Z,47.01
2023-03-27T10:44:21.357Z,50.61
2023-03-27T10:46:54.981Z,47.67
2023-03-27T10:49:34.842Z,48.67
2023-03-27T10:52:31.091Z,42.77
2023-03-27T10:55:12.486Z,44.03
2023-03-27T10:57:43.090Z,46.35
2023-03-27T11:00:20.883Z,47.51
2023-03-27T11:03:36.428Z,48.96
2023-03-27T11:06:13.873Z,42.64
2023-03-27T11:08:48.393Z,43.25
2023-03-27T11:11:25.618Z,44.41
2023-03-27T11:14:02.140Z,47.18
2023-03-27T11:16:42.288Z,48.77
2023-03-27T11:19:45.864Z,49.38
2023-03-27T11:22:33.681Z,47.94
2023-03-27T11:25:14.009Z,45.50
2023-03-27T11:27:48.141Z,43.83
2023-03-27T11:30:32.950Z,44.66
2023-03-27T11:33:25.553Z,47.34
2023-03-27T11:36:06.567Z,51.03
2023-03-27T11:38:59.349Z,48.39
2023-03-27T11:41:26.975Z,48.18
2023-03-27T11:43:53.668Z,49.06
2023-03-27T11:47:19.626Z,49.94
2023-03-27T11:50:05.712Z,48.40
2023-03-27T11:52:57.091Z,42.95
2023-03-27T11:56:09.665Z,42.95
2023-03-27T11:59:01.520Z,42.84
2023-03-27T12:01:48.502Z,42.20
2023-03-27T12:04:37.774Z,37.71
2023-03-27T12:07:47.366Z,34.37
2023-03-27T12:10:33.771Z,36.95
2023-03-27T12:13:38.658Z,39.71
2023-03-27T12:16:35.894Z,44.00
2023-03-27T12:19:28.583Z,41.77
2023-03-27T12:22:24.844Z,38.08
2023-03-27T12:24:59.961Z,34.62
2023-03-27T12:28:06.433Z,29.59
2023-03-27T12:31:01.625Z,31.87
2023-03-27T12:33:54.084Z,31.55
2023-03-27T12:36:24.277Z,34.62
2023-03-27T12:38:54.193Z,35.36
2023-03-27T12:41:23.365Z,35.98
2023-03-27T12:44:13.307Z,32.52
2023-03-27T12:47:22.925Z,32.58
2023-03-27T12:49:59.746Z,34.06
2023-03-27T12:52:32.913Z,36.09
2023-03-27T12:55:15.944Z,33.29
2023-03-27T12:58:05.390Z,34.13
2023-03-27T13:00:41.217Z,33.77
2023-03-27T13:03:46.972Z,33.82
2023-03-27T13:06:29.550Z,32.72
2023-03-27T13:09:23.133Z,31.55
2023-03-27T13:12:13.753Z,32.15
2023-03-27T13:15:03.743Z,34.32
2023-03-27T13:17:56.176Z,35.35
2023-03-27T13:20:45.370Z,35.13
2023-03-27T13:23:32.923Z,35.34
2023-03-27T13:26:10.442Z,32.61
2023-03-27T13:28:48.568Z,32.62
2023-03-27T13:31:49.463Z,31.17
2023-03-27T13:34:37.508Z,30.34
2023-03-27T13:37:11.243Z,27.98
2023-03-27T13:40:01.510Z,28.73
2023-03-27T13:42:39.778Z,29.81
2023-03-27T13:45:20.536Z,33.39
2023-03-27T13:48:40.887Z,33.05
2023-03-27T13:51:32.687Z,35.90
2023-03-27T13:54:06.594Z,40.59
2023-03-27T13:56:56.659Z,41.78
2023-03-27T13:59:43.741Z,46.58
2023-03-27T14:02:45.611Z,49.23
2023-03-27T14:05:20.329Z,52.14
2023-03-27T14:08:06.114Z,54.10
2023-03-27T14:11:11.053Z,55.64
2023-03-27T14:14:07.523Z,56.93
2023-03-27T14:17:12.680Z,54.41
2023-03-27T14:19:45.796Z,53.10
2023-03-27T14:23:00.598Z,49.13
2023-03-27T14:25:40.988Z,48.99
2023-03-27T14:28:35.228Z,50.75
2023-03-27T14:31:08.403Z,54.54
2023-03-27T14:34:01.032Z,59.08
2023-03-27T14:36:33.947Z,60.93
2023-03-27T14:39:22.721Z,62.27
2023-03-27T14:42:02.214Z,60.65
2023-03-27T14:44:32.477Z,58.69
2023-03-27T14:47:09.985Z,57.20
2023-03-27T14:49:45.816Z,57.40
2023-03-27T14:52:33.346Z,55.83
2023-03-27T14:55:37.030Z,57.76
2023-03-27T14:58:25.012Z,57.21
2023-03-27T15:01:01.707Z,57.56
2023-03-27T15:03:35.293Z,56.83
2023-03-27T15:06:04.588Z,58.59
2023-03-27T15:08:50.192Z,54.50
2023-03-27T15:11:55.581Z,57.41
2023-03-27T15:14:28.962Z,57.39
2023-03-27T15:17:19.191Z,57.53
2023-03-27T15:20:00.488Z,59.14
2023-03-27T15:22:35.217Z,59.45
2023-03-27T15:25:17.680Z,59.16
2023-03-27T15:27:53.993Z,59.96
2023-03-27T15:30:25.637Z,59.99
2023-03-27T15:32:54.905Z,58.63
2023-03-27T15:35:33.423Z,57.81
2023-03-27T15:38:02.306Z,57.71
2023-03-27T15:40:58.609Z,56.43
2023-03-27T15:43:28.143Z,55.95
2023-03-27T15:46:17.683Z,55.47
2023-03-27T15:48:48.311Z,55.48
2023-03-27T15:51:21.050Z,54.63
2023-03-27T15:53:58.744Z,53.26
2023-03-27T15:56:42.370Z,55.19
2023-03-27T15:59:15.573Z,55.76
2023-03-27T16:01:53.173Z,55.42
2023-03-27T16:04:39.124Z,56.06
2023-03-27T16:07:42.899Z,59.02
2023-03-27T16:10:10.763Z,59.21
2023-03-27T16:12:51.722Z,60.47
2023-03-27T16:15:36.563Z,60.34
2023-03-27T16:18:32.573Z,59.54
2023-03-27T16:21:28.289Z,59.64
2023-03-27T16:23:56.976Z,61.02
2023-03-27T16:26:30.791Z,60.73
2023-03-27T16:29:05.377Z,61.60
2023-03-27T16:31:33.490Z,61.10
2023-03-27T16:34:01.954Z,61.94
2023-03-27T16:36:33.446Z,62.80
2023-03-27T16:39:01.738Z,64.18
2023-03-27T16:41:29.932Z,63.58
2023-03-27T16:43:58.006Z,63.73
2023-03-27T16:46:29.437Z,63.80
2023-03-27T16:48:58.048Z,63.83
2023-03-27T16:51:29.526Z,64.57
2023-03-27T16:53:57.917Z,64.91
2023-03-27T16:56:26.304Z,64.82
2023-03-27T16:58:54.745Z,65.87
2023-03-27T17:01:24.628Z,66.76
2023-03-27T17:03:52.839Z,67.00
2023-03-27T17:06:23.257Z,66.46
2023-03-27T17:08:56.201Z,66.75
2023-03-27T17:11:25.009Z,66.64
2023-03-27T17:13:53.368Z,65.94
2023-03-27T17:16:21.458Z,66.47
2023-03-27T17:18:50.557Z,65.58
2023-03-27T17:21:19.262Z,63.97
2023-03-27T17:23:49.268Z,64.51
2023-03-27T17:26:32.675Z,67.77
2023-03-27T17:29:01.923Z,70.96
2023-03-27T17:31:31.050Z,73.45
2023-03-27T17:34:00.643Z,74.93
2023-03-27T17:36:40.205Z,75.72
2023-03-27T17:39:12.002Z,77.38
2023-03-27T17:41:40.204Z,77.45
2023-03-27T17:44:11.272Z,78.49
2023-03-27T17:46:40.781Z,79.64
2023-03-27T17:49:08.570Z,79.40
2023-03-27T17:51:37.819Z,79.20
2023-03-27T17:54:05.943Z,79.51
2023-03-27T17:56:34.764Z,79.48
2023-03-27T17:59:04.028Z,80.10
2023-03-27T18:01:31.524Z,80.01
2023-03-27T18:04:00.375Z,81.00
2023-03-27T18:06:27.236Z,81.27
2023-03-27T18:08:54.315Z,81.71
2023-03-27T18:11:21.616Z,82.49
2023-03-27T18:13:52.815Z,82.62
2023-03-27T18:16:20.233Z,82.11
2023-03-27T18:18:47.458Z,82.12
2023-03-27T18:21:16.215Z,82.41
2023-03-27T18:23:45.924Z,83.11
2023-03-27T18:26:13.888Z,83.26
2023-03-27T18:28:40.607Z,84.14
2023-03-27T18:31:09.509Z,84.00
2023-03-27T18:33:36.526Z,84.25
2023-03-27T18:36:06.847Z,84.46
2023-03-27T18:38:33.519Z,84.56
2023-03-27T18:41:00.513Z,84.53
2023-03-27T18:43:27.389Z,84.43
2023-03-27T18:46:08.192Z,83.84
2023-03-27T18:48:35.294Z,83.77
2023-03-27T18:51:04.400Z,83.49
2023-03-27T18:53:31.487Z,83.65
2023-03-27T18:55:58.925Z,83.80
2023-03-27T18:58:27.682Z,83.40
2023-03-27T19:00:58.287Z,83.91
2023-03-27T19:03:30.267Z,83.94
2023-03-27T19:06:01.189Z,83.95
2023-03-27T19:08:29.156Z,84.09
2023-03-27T19:10:57.340Z,84.02
2023-03-27T19:13:42.868Z,84.34
2023-03-27T19:16:32.923Z,84.25
2023-03-27T19:19:19.073Z,84.56
2023-03-27T19:21:52.780Z,84.73
2023-03-27T19:24:26.064Z,84.49
2023-03-27T19:26:52.946Z,84.28
2023-03-27T19:29:20.219Z,84.28
2023-03-27T19:31:46.909Z,84.33
2023-03-27T19:34:13.614Z,84.14
2023-03-27T19:36:40.498Z,84.29
2023-03-27T19:39:07.161Z,84.05
2023-03-27T19:41:33.888Z,84.06
2023-03-27T19:44:00.817Z,83.48
2023-03-27T19:46:29.045Z,83.14
2023-03-27T19:48:56.482Z,82.89
2023-03-27T19:51:32.238Z,82.62
2023-03-27T19:53:58.827Z,82.16
2023-03-27T19:56:26.542Z,82.93
2023-03-27T19:58:53.484Z,82.05
2023-03-27T20:01:20.123Z,82.38
2023-03-27T20:03:47.068Z,82.16
2023-03-27T20:06:19.598Z,82.14
2023-03-27T20:08:46.663Z,82.28
2023-03-27T20:11:15.337Z,81.69
2023-03-27T20:13:55.484Z,81.23
2023-03-27T20:16:26.569Z,81.40
2023-03-27T20:19:04.339Z,81.09
2023-03-27T20:21:39.772Z,80.57
2023-03-27T20:24:12.171Z,80.54
2023-03-27T20:26:41.999Z,80.26
2023-03-27T20:29:18.489Z,80.63
2023-03-27T20:31:46.142Z,80.61
2023-03-27T20:34:13.026Z,80.55
2023-03-27T20:36:40.010Z,80.50
2023-03-27T20:39:19.016Z,80.65
2023-03-27T20:41:46.999Z,80.26
2023-03-27T20:44:16.558Z,80.58
2023-03-27T20:46:51.888Z,80.77
2023-03-27T20:51:55.817Z,80.51
2023-03-27T20:54:22.613Z,80.25
2023-03-27T20:56:49.261Z,79.98
2023-03-27T20:59:17.515Z,79.68
2023-03-27T21:01:44.216Z,79.64
2023-03-27T21:04:13.319Z,80.10
2023-03-27T21:06:41.389Z,80.23
2023-03-27T21:09:09.314Z,79.96
2023-03-27T21:11:36.410Z,79.36
2023-03-27T21:14:03.904Z,79.17
2023-03-27T21:16:30.623Z,79.22
2023-03-27T21:18:57.262Z,79.24
2023-03-27T21:21:23.939Z,79.51
2023-03-27T21:23:51.513Z,80.10
2023-03-27T21:26:18.117Z,80.61
2023-03-27T21:28:44.872Z,79.91
2023-03-27T21:31:11.892Z,79.91
2023-03-27T21:33:38.591Z,80.27
2023-03-27T21:36:05.749Z,79.72
2023-03-27T21:38:32.471Z,79.42
2023-03-27T21:41:01.935Z,79.53
2023-03-27T21:43:29.217Z,79.25
2023-03-27T21:45:55.925Z,79.30
2023-03-27T21:48:22.519Z,79.48
2023-03-27T21:50:49.206Z,79.86
2023-03-27T21:53:17.031Z,79.77
2023-03-27T21:55:46.333Z,79.76
2023-03-27T21:58:12.871Z,79.63
2023-03-27T22:00:39.501Z,79.54
2023-03-27T22:03:06.847Z,79.58
2023-03-27T22:05:36.610Z,78.79
2023-03-27T22:08:03.904Z,78.76
2023-03-27T22:10:30.809Z,78.75
2023-03-27T22:12:57.396Z,78.95
2023-03-27T22:15:24.151Z,78.19
2023-03-27T22:17:50.839Z,77.79
2023-03-27T22:20:17.534Z,77.82
2023-03-27T22:22:44.085Z,77.84
2023-03-27T22:25:10.774Z,78.03
2023-03-27T22:27:37.403Z,77.78
2023-03-27T22:30:04.492Z,78.13
2023-03-27T22:32:31.368Z,77.73
2023-03-27T22:34:58.122Z,78.02
2023-03-27T22:37:25.140Z,77.53
2023-03-27T22:39:53.000Z,77.23
2023-03-27T22:42:19.637Z,77.38
2023-03-27T22:44:46.258Z,77.31
2023-03-27T22:47:12.779Z,78.07
2023-03-27T22:49:39.400Z,77.67
2023-03-27T22:52:06.164Z,77.16
2023-03-27T22:54:32.814Z,77.60
2023-03-27T22:56:59.420Z,77.91
2023-03-27T22:59:26.116Z,78.03
2023-03-27T23:01:52.861Z,78.05
2023-03-27T23:04:19.441Z,78.08
2023-03-27T23:06:46.012Z,77.57
2023-03-27T23:09:12.560Z,77.14
2023-03-27T23:11:39.191Z,77.74
2023-03-27T23:14:06.072Z,77.36
2023-03-27T23:16:33.319Z,77.02
2023-03-27T23:18:59.946Z,77.17
2023-03-27T23:21:26.566Z,77.55
2023-03-27T23:23:53.181Z,77.08
2023-03-27T23:26:19.813Z,76.25
2023-03-27T23:28:46.428Z,77.01
2023-03-27T23:31:15.676Z,76.16
2023-03-27T23:33:47.589Z,76.17
2023-03-27T23:36:23.282Z,76.37
2023-03-27T23:38:51.518Z,76.15
2023-03-27T23:41:19.243Z,76.02
2023-03-27T23:43:46.195Z,76.45
2023-03-27T23:46:13.314Z,75.79
2023-03-27T23:48:42.141Z,76.46
2023-03-27T23:51:10.192Z,76.02
2023-03-27T23:53:37.772Z,76.60
2023-03-27T23:56:04.873Z,76.50
2023-03-27T23:58:35.038Z,76.55
